sensor_id;sensor_type;location;lat;lon;timestamp;P1;durP1;ratioP1;P2;durP2;ratioP2
4630;SDS011;2328;48.170;11.602;2023-12-04T00:00:17;9.93;;;2.90;;
4630;SDS011;2328;48.170;11.602;2023-12-04T00:02:46;8.33;;;4.30;;
4630;SDS011;2328;48.170;11.602;2023-12-04T00:05:14;9.30;;;3.30;;
4630;SDS011;2328;48.170;11.602;2023-12-04T00:07:43;9.17;;;3.43;;
4630;SDS011;2328;48.170;11.602;2023-12-04T00:10:11;7.70;;;3.53;;
4630;SDS011;2328;48.170;11.602;2023-12-04T00:12:40;7.40;;;2.67;;
4630;SDS011;2328;48.170;11.602;2023-12-04T00:15:09;7.50;;;3.47;;
4630;SDS011;2328;48.170;11.602;2023-12-04T00:17:39;4.70;;;2.60;;
4630;SDS011;2328;48.170;11.602;2023-12-04T00:20:08;6.07;;;2.40;;
4630;SDS011;2328;48.170;11.602;2023-12-04T00:22:37;5.03;;;3.37;;
4630;SDS011;2328;48.170;11.602;2023-12-04T00:25:06;6.97;;;2.73;;
4630;SDS011;2328;48.170;11.602;2023-12-04T00:27:35;2.73;;;2.20;;
4630;SDS011;2328;48.170;11.602;2023-12-04T00:30:04;5.97;;;2.50;;
4630;SDS011;2328;48.170;11.602;2023-12-04T00:32:33;4.80;;;2.13;;
4630;SDS011;2328;48.170;11.602;2023-12-04T00:35:03;6.10;;;2.70;;
4630;SDS011;2328;48.170;11.602;2023-12-04T00:37:32;5.67;;;2.60;;
4630;SDS011;2328;48.170;11.602;2023-12-04T00:40:05;4.17;;;2.03;;
4630;SDS011;2328;48.170;11.602;2023-12-04T00:42:34;2.57;;;2.37;;
4630;SDS011;2328;48.170;11.602;2023-12-04T00:45:03;7.63;;;2.50;;
4630;SDS011;2328;48.170;11.602;2023-12-04T00:47:32;2.43;;;1.43;;
4630;SDS011;2328;48.170;11.602;2023-12-04T00:50:00;3.93;;;1.90;;
4630;SDS011;2328;48.170;11.602;2023-12-04T00:52:30;4.00;;;2.60;;
4630;SDS011;2328;48.170;11.602;2023-12-04T00:55:00;4.10;;;3.33;;
4630;SDS011;2328;48.170;11.602;2023-12-04T00:57:28;5.47;;;2.70;;
4630;SDS011;2328;48.170;11.602;2023-12-04T00:59:57;3.73;;;2.20;;
4630;SDS011;2328;48.170;11.602;2023-12-04T01:02:25;5.03;;;2.00;;
4630;SDS011;2328;48.170;11.602;2023-12-04T01:04:54;4.37;;;2.50;;
4630;SDS011;2328;48.170;11.602;2023-12-04T01:07:22;4.70;;;2.47;;
4630;SDS011;2328;48.170;11.602;2023-12-04T01:09:53;6.67;;;3.70;;
4630;SDS011;2328;48.170;11.602;2023-12-04T01:12:22;5.53;;;2.63;;
4630;SDS011;2328;48.170;11.602;2023-12-04T01:14:57;3.23;;;2.23;;
4630;SDS011;2328;48.170;11.602;2023-12-04T01:17:28;3.20;;;1.97;;
4630;SDS011;2328;48.170;11.602;2023-12-04T01:19:56;5.83;;;2.47;;
4630;SDS011;2328;48.170;11.602;2023-12-04T01:22:25;4.00;;;2.60;;
4630;SDS011;2328;48.170;11.602;2023-12-04T01:24:55;6.07;;;2.77;;
4630;SDS011;2328;48.170;11.602;2023-12-04T01:27:23;5.27;;;3.30;;
4630;SDS011;2328;48.170;11.602;2023-12-04T01:29:52;3.60;;;2.37;;
4630;SDS011;2328;48.170;11.602;2023-12-04T01:32:21;9.90;;;3.13;;
4630;SDS011;2328;48.170;11.602;2023-12-04T01:34:49;3.37;;;2.23;;
4630;SDS011;2328;48.170;11.602;2023-12-04T01:37:18;4.27;;;2.73;;
4630;SDS011;2328;48.170;11.602;2023-12-04T01:39:46;2.70;;;2.47;;
4630;SDS011;2328;48.170;11.602;2023-12-04T01:42:16;6.47;;;2.87;;
4630;SDS011;2328;48.170;11.602;2023-12-04T01:44:45;6.97;;;2.37;;
4630;SDS011;2328;48.170;11.602;2023-12-04T01:47:14;3.93;;;1.53;;
4630;SDS011;2328;48.170;11.602;2023-12-04T01:49:42;8.33;;;3.53;;
4630;SDS011;2328;48.170;11.602;2023-12-04T01:52:11;1.60;;;1.50;;
4630;SDS011;2328;48.170;11.602;2023-12-04T01:54:40;2.00;;;1.90;;
4630;SDS011;2328;48.170;11.602;2023-12-04T01:57:09;5.07;;;2.67;;
4630;SDS011;2328;48.170;11.602;2023-12-04T01:59:39;1.47;;;1.37;;
4630;SDS011;2328;48.170;11.602;2023-12-04T02:02:08;4.10;;;2.60;;
4630;SDS011;2328;48.170;11.602;2023-12-04T02:04:38;5.17;;;2.37;;
4630;SDS011;2328;48.170;11.602;2023-12-04T02:07:06;1.70;;;1.40;;
4630;SDS011;2328;48.170;11.602;2023-12-04T02:09:36;4.53;;;1.93;;
4630;SDS011;2328;48.170;11.602;2023-12-04T02:12:05;5.83;;;2.40;;
4630;SDS011;2328;48.170;11.602;2023-12-04T02:14:35;2.40;;;1.47;;
4630;SDS011;2328;48.170;11.602;2023-12-04T02:17:06;4.00;;;1.97;;
4630;SDS011;2328;48.170;11.602;2023-12-04T02:19:34;3.77;;;2.40;;
4630;SDS011;2328;48.170;11.602;2023-12-04T02:22:03;3.70;;;2.40;;
4630;SDS011;2328;48.170;11.602;2023-12-04T02:24:33;3.07;;;1.77;;
4630;SDS011;2328;48.170;11.602;2023-12-04T02:27:04;5.63;;;2.30;;
4630;SDS011;2328;48.170;11.602;2023-12-04T02:29:37;3.90;;;2.00;;
4630;SDS011;2328;48.170;11.602;2023-12-04T02:32:07;7.80;;;2.57;;
4630;SDS011;2328;48.170;11.602;2023-12-04T02:34:37;2.57;;;1.23;;
4630;SDS011;2328;48.170;11.602;2023-12-04T02:37:06;2.50;;;1.50;;
4630;SDS011;2328;48.170;11.602;2023-12-04T02:39:38;2.13;;;1.63;;
4630;SDS011;2328;48.170;11.602;2023-12-04T02:42:06;3.73;;;2.27;;
4630;SDS011;2328;48.170;11.602;2023-12-04T02:44:35;2.10;;;1.87;;
4630;SDS011;2328;48.170;11.602;2023-12-04T02:47:03;5.03;;;2.00;;
4630;SDS011;2328;48.170;11.602;2023-12-04T02:49:32;5.10;;;1.33;;
4630;SDS011;2328;48.170;11.602;2023-12-04T02:52:04;1.47;;;1.37;;
4630;SDS011;2328;48.170;11.602;2023-12-04T02:54:32;5.43;;;2.13;;
4630;SDS011;2328;48.170;11.602;2023-12-04T02:57:03;1.57;;;1.37;;
4630;SDS011;2328;48.170;11.602;2023-12-04T02:59:32;6.20;;;2.23;;
4630;SDS011;2328;48.170;11.602;2023-12-04T03:02:00;5.30;;;2.00;;
4630;SDS011;2328;48.170;11.602;2023-12-04T03:04:29;3.53;;;1.80;;
4630;SDS011;2328;48.170;11.602;2023-12-04T03:06:58;4.30;;;2.47;;
4630;SDS011;2328;48.170;11.602;2023-12-04T03:09:27;3.47;;;2.70;;
4630;SDS011;2328;48.170;11.602;2023-12-04T03:12:16;5.60;;;2.50;;
4630;SDS011;2328;48.170;11.602;2023-12-04T03:14:45;3.60;;;2.30;;
4630;SDS011;2328;48.170;11.602;2023-12-04T03:17:13;3.47;;;2.50;;
4630;SDS011;2328;48.170;11.602;2023-12-04T03:19:42;8.23;;;2.50;;
4630;SDS011;2328;48.170;11.602;2023-12-04T03:22:11;5.20;;;3.80;;
4630;SDS011;2328;48.170;11.602;2023-12-04T03:24:40;3.33;;;1.70;;
4630;SDS011;2328;48.170;11.602;2023-12-04T03:27:09;12.33;;;2.57;;
4630;SDS011;2328;48.170;11.602;2023-12-04T03:29:39;3.23;;;1.80;;
4630;SDS011;2328;48.170;11.602;2023-12-04T03:32:08;10.23;;;2.07;;
4630;SDS011;2328;48.170;11.602;2023-12-04T03:34:36;4.43;;;2.80;;
4630;SDS011;2328;48.170;11.602;2023-12-04T03:37:05;5.47;;;2.07;;
4630;SDS011;2328;48.170;11.602;2023-12-04T03:39:34;4.47;;;1.90;;
4630;SDS011;2328;48.170;11.602;2023-12-04T03:42:02;3.50;;;2.10;;
4630;SDS011;2328;48.170;11.602;2023-12-04T03:44:31;3.90;;;2.37;;
4630;SDS011;2328;48.170;11.602;2023-12-04T03:47:01;4.63;;;1.30;;
4630;SDS011;2328;48.170;11.602;2023-12-04T03:49:30;3.50;;;1.80;;
4630;SDS011;2328;48.170;11.602;2023-12-04T03:51:59;2.63;;;1.20;;
4630;SDS011;2328;48.170;11.602;2023-12-04T03:54:27;4.27;;;1.87;;
4630;SDS011;2328;48.170;11.602;2023-12-04T03:56:56;10.40;;;2.70;;
4630;SDS011;2328;48.170;11.602;2023-12-04T03:59:25;1.77;;;1.23;;
4630;SDS011;2328;48.170;11.602;2023-12-04T04:01:53;8.77;;;2.77;;
4630;SDS011;2328;48.170;11.602;2023-12-04T04:04:24;5.60;;;2.30;;
4630;SDS011;2328;48.170;11.602;2023-12-04T04:06:53;5.67;;;1.80;;
4630;SDS011;2328;48.170;11.602;2023-12-04T04:09:23;2.70;;;2.03;;
4630;SDS011;2328;48.170;11.602;2023-12-04T04:11:52;4.63;;;3.20;;
4630;SDS011;2328;48.170;11.602;2023-12-04T04:14:21;7.23;;;2.03;;
4630;SDS011;2328;48.170;11.602;2023-12-04T04:16:51;5.30;;;1.67;;
4630;SDS011;2328;48.170;11.602;2023-12-04T04:19:19;9.33;;;2.57;;
4630;SDS011;2328;48.170;11.602;2023-12-04T04:21:49;3.50;;;2.70;;
4630;SDS011;2328;48.170;11.602;2023-12-04T04:24:18;6.03;;;2.20;;
4630;SDS011;2328;48.170;11.602;2023-12-04T04:26:46;3.33;;;1.80;;
4630;SDS011;2328;48.170;11.602;2023-12-04T04:29:15;5.03;;;1.67;;
4630;SDS011;2328;48.170;11.602;2023-12-04T04:31:43;2.00;;;1.40;;
4630;SDS011;2328;48.170;11.602;2023-12-04T04:34:12;5.70;;;2.00;;
4630;SDS011;2328;48.170;11.602;2023-12-04T04:36:40;3.20;;;2.67;;
4630;SDS011;2328;48.170;11.602;2023-12-04T04:39:12;2.17;;;1.50;;
4630;SDS011;2328;48.170;11.602;2023-12-04T04:41:41;1.93;;;1.70;;
4630;SDS011;2328;48.170;11.602;2023-12-04T04:44:11;2.87;;;1.07;;
4630;SDS011;2328;48.170;11.602;2023-12-04T04:46:40;6.30;;;1.40;;
4630;SDS011;2328;48.170;11.602;2023-12-04T04:49:08;4.70;;;2.33;;
4630;SDS011;2328;48.170;11.602;2023-12-04T04:51:37;3.93;;;2.70;;
4630;SDS011;2328;48.170;11.602;2023-12-04T05:49:02;3.13;;;1.20;;
4630;SDS011;2328;48.170;11.602;2023-12-04T05:51:30;6.47;;;2.20;;
4630;SDS011;2328;48.170;11.602;2023-12-04T05:54:01;3.47;;;1.60;;
4630;SDS011;2328;48.170;11.602;2023-12-04T05:56:29;1.90;;;1.60;;
4630;SDS011;2328;48.170;11.602;2023-12-04T05:58:58;3.43;;;1.63;;
4630;SDS011;2328;48.170;11.602;2023-12-04T06:01:26;3.63;;;1.73;;
4630;SDS011;2328;48.170;11.602;2023-12-04T06:03:55;3.27;;;1.77;;
4630;SDS011;2328;48.170;11.602;2023-12-04T06:06:26;3.47;;;0.80;;
4630;SDS011;2328;48.170;11.602;2023-12-04T06:08:54;3.17;;;2.07;;
4630;SDS011;2328;48.170;11.602;2023-12-04T06:11:23;7.60;;;1.90;;
4630;SDS011;2328;48.170;11.602;2023-12-04T15:34:41;10.97;;;5.37;;
4630;SDS011;2328;48.170;11.602;2023-12-04T15:37:11;18.33;;;7.50;;
4630;SDS011;2328;48.170;11.602;2023-12-04T15:39:38;14.80;;;7.77;;
4630;SDS011;2328;48.170;11.602;2023-12-04T15:49:03;12.40;;;5.60;;
4630;SDS011;2328;48.170;11.602;2023-12-04T15:51:34;12.17;;;5.37;;
4630;SDS011;2328;48.170;11.602;2023-12-04T15:54:03;12.13;;;4.33;;
4630;SDS011;2328;48.170;11.602;2023-12-04T15:56:32;9.07;;;5.03;;
4630;SDS011;2328;48.170;11.602;2023-12-04T15:59:02;8.50;;;4.63;;
4630;SDS011;2328;48.170;11.602;2023-12-04T16:01:30;13.47;;;7.43;;
4630;SDS011;2328;48.170;11.602;2023-12-04T16:03:59;14.07;;;5.10;;
4630;SDS011;2328;48.170;11.602;2023-12-04T16:06:30;9.07;;;5.47;;
4630;SDS011;2328;48.170;11.602;2023-12-04T16:11:52;10.83;;;5.60;;
4630;SDS011;2328;48.170;11.602;2023-12-04T16:14:23;8.73;;;5.80;;
4630;SDS011;2328;48.170;11.602;2023-12-04T16:16:52;14.30;;;6.10;;
4630;SDS011;2328;48.170;11.602;2023-12-04T16:19:20;10.73;;;6.40;;
4630;SDS011;2328;48.170;11.602;2023-12-04T16:21:57;11.27;;;5.30;;
4630;SDS011;2328;48.170;11.602;2023-12-04T16:24:26;9.20;;;4.97;;
4630;SDS011;2328;48.170;11.602;2023-12-04T16:27:06;10.07;;;4.90;;
4630;SDS011;2328;48.170;11.602;2023-12-04T16:32:27;13.97;;;6.37;;
4630;SDS011;2328;48.170;11.602;2023-12-04T16:35:00;9.60;;;4.60;;
4630;SDS011;2328;48.170;11.602;2023-12-04T16:37:29;5.93;;;3.47;;
4630;SDS011;2328;48.170;11.602;2023-12-04T16:40:01;11.47;;;5.30;;
4630;SDS011;2328;48.170;11.602;2023-12-04T16:45:52;13.83;;;8.20;;
4630;SDS011;2328;48.170;11.602;2023-12-04T16:52:06;22.10;;;9.10;;
4630;SDS011;2328;48.170;11.602;2023-12-04T16:54:34;15.23;;;9.00;;
4630;SDS011;2328;48.170;11.602;2023-12-04T16:57:10;14.97;;;7.20;;
4630;SDS011;2328;48.170;11.602;2023-12-04T16:59:41;10.53;;;6.27;;
4630;SDS011;2328;48.170;11.602;2023-12-04T17:02:14;11.03;;;6.00;;
4630;SDS011;2328;48.170;11.602;2023-12-04T17:04:53;17.47;;;5.90;;
4630;SDS011;2328;48.170;11.602;2023-12-04T17:07:24;17.33;;;6.93;;
4630;SDS011;2328;48.170;11.602;2023-12-04T17:09:54;28.70;;;11.80;;
4630;SDS011;2328;48.170;11.602;2023-12-04T17:12:26;17.80;;;9.07;;
4630;SDS011;2328;48.170;11.602;2023-12-04T17:14:58;16.20;;;8.60;;
4630;SDS011;2328;48.170;11.602;2023-12-04T17:17:29;12.17;;;6.53;;
4630;SDS011;2328;48.170;11.602;2023-12-04T17:20:02;16.17;;;7.00;;
4630;SDS011;2328;48.170;11.602;2023-12-04T17:22:31;21.57;;;7.97;;
4630;SDS011;2328;48.170;11.602;2023-12-04T17:25:01;20.27;;;9.90;;
4630;SDS011;2328;48.170;11.602;2023-12-04T17:27:34;14.30;;;7.70;;
4630;SDS011;2328;48.170;11.602;2023-12-04T17:30:03;14.63;;;6.90;;
4630;SDS011;2328;48.170;11.602;2023-12-04T17:32:50;10.53;;;6.37;;
4630;SDS011;2328;48.170;11.602;2023-12-04T17:35:19;16.43;;;5.83;;
4630;SDS011;2328;48.170;11.602;2023-12-04T17:37:49;20.87;;;6.80;;
4630;SDS011;2328;48.170;11.602;2023-12-04T17:43:25;17.60;;;5.50;;
4630;SDS011;2328;48.170;11.602;2023-12-04T17:46:03;12.90;;;5.27;;
4630;SDS011;2328;48.170;11.602;2023-12-04T17:48:33;13.23;;;6.00;;
4630;SDS011;2328;48.170;11.602;2023-12-04T17:51:13;20.03;;;5.67;;
4630;SDS011;2328;48.170;11.602;2023-12-04T17:53:49;7.83;;;4.77;;
4630;SDS011;2328;48.170;11.602;2023-12-04T17:56:21;21.20;;;6.60;;
4630;SDS011;2328;48.170;11.602;2023-12-04T17:58:50;11.10;;;6.70;;
4630;SDS011;2328;48.170;11.602;2023-12-04T18:01:19;12.87;;;6.93;;
4630;SDS011;2328;48.170;11.602;2023-12-04T18:03:50;13.03;;;7.67;;
4630;SDS011;2328;48.170;11.602;2023-12-04T18:06:24;10.40;;;5.50;;
4630;SDS011;2328;48.170;11.602;2023-12-04T18:08:54;10.27;;;5.50;;
4630;SDS011;2328;48.170;11.602;2023-12-04T18:11:23;8.30;;;4.23;;
4630;SDS011;2328;48.170;11.602;2023-12-04T18:13:54;16.23;;;6.67;;
4630;SDS011;2328;48.170;11.602;2023-12-04T18:16:26;14.53;;;5.83;;
4630;SDS011;2328;48.170;11.602;2023-12-04T18:18:56;19.27;;;6.57;;
4630;SDS011;2328;48.170;11.602;2023-12-04T18:21:26;13.00;;;6.07;;
4630;SDS011;2328;48.170;11.602;2023-12-04T18:23:57;10.00;;;4.97;;
4630;SDS011;2328;48.170;11.602;2023-12-04T18:26:26;16.27;;;5.07;;
4630;SDS011;2328;48.170;11.602;2023-12-04T18:28:55;8.47;;;5.43;;
4630;SDS011;2328;48.170;11.602;2023-12-04T18:31:24;11.80;;;6.90;;
4630;SDS011;2328;48.170;11.602;2023-12-04T18:33:56;13.30;;;5.43;;
4630;SDS011;2328;48.170;11.602;2023-12-04T18:36:26;10.27;;;5.93;;
4630;SDS011;2328;48.170;11.602;2023-12-04T18:38:56;10.80;;;4.00;;
4630;SDS011;2328;48.170;11.602;2023-12-04T18:41:26;14.03;;;7.60;;
4630;SDS011;2328;48.170;11.602;2023-12-04T18:43:55;16.03;;;7.03;;
4630;SDS011;2328;48.170;11.602;2023-12-04T18:46:24;13.00;;;6.00;;
4630;SDS011;2328;48.170;11.602;2023-12-04T18:48:53;7.30;;;5.17;;
4630;SDS011;2328;48.170;11.602;2023-12-04T18:51:24;12.57;;;5.80;;
4630;SDS011;2328;48.170;11.602;2023-12-04T18:53:55;15.10;;;6.60;;
4630;SDS011;2328;48.170;11.602;2023-12-04T18:56:37;16.30;;;6.27;;
4630;SDS011;2328;48.170;11.602;2023-12-04T18:59:06;14.93;;;4.97;;
4630;SDS011;2328;48.170;11.602;2023-12-04T19:01:38;12.13;;;6.80;;
4630;SDS011;2328;48.170;11.602;2023-12-04T19:04:12;18.50;;;5.53;;
4630;SDS011;2328;48.170;11.602;2023-12-04T19:06:46;15.70;;;6.90;;
4630;SDS011;2328;48.170;11.602;2023-12-04T19:09:16;13.40;;;6.37;;
4630;SDS011;2328;48.170;11.602;2023-12-04T19:12:12;16.13;;;6.90;;
4630;SDS011;2328;48.170;11.602;2023-12-04T19:14:41;17.77;;;7.73;;
4630;SDS011;2328;48.170;11.602;2023-12-04T19:17:11;15.63;;;7.00;;
4630;SDS011;2328;48.170;11.602;2023-12-04T19:19:40;19.63;;;6.77;;
4630;SDS011;2328;48.170;11.602;2023-12-04T19:22:12;16.00;;;7.90;;
4630;SDS011;2328;48.170;11.602;2023-12-04T19:24:41;14.03;;;6.30;;
4630;SDS011;2328;48.170;11.602;2023-12-04T19:27:11;12.07;;;5.07;;
4630;SDS011;2328;48.170;11.602;2023-12-04T19:29:40;16.00;;;7.13;;
4630;SDS011;2328;48.170;11.602;2023-12-04T19:32:09;15.77;;;6.63;;
4630;SDS011;2328;48.170;11.602;2023-12-04T19:34:48;18.27;;;8.00;;
4630;SDS011;2328;48.170;11.602;2023-12-04T19:37:24;13.87;;;7.07;;
4630;SDS011;2328;48.170;11.602;2023-12-04T19:39:55;13.57;;;6.83;;
4630;SDS011;2328;48.170;11.602;2023-12-04T19:42:30;10.67;;;6.00;;
4630;SDS011;2328;48.170;11.602;2023-12-04T19:45:01;18.37;;;7.27;;
4630;SDS011;2328;48.170;11.602;2023-12-04T19:47:33;16.33;;;6.00;;
4630;SDS011;2328;48.170;11.602;2023-12-04T19:50:03;14.50;;;7.07;;
4630;SDS011;2328;48.170;11.602;2023-12-04T19:52:36;13.50;;;6.30;;
4630;SDS011;2328;48.170;11.602;2023-12-04T19:55:09;21.73;;;6.93;;
4630;SDS011;2328;48.170;11.602;2023-12-04T19:57:39;8.10;;;4.83;;
4630;SDS011;2328;48.170;11.602;2023-12-04T20:00:09;13.83;;;6.10;;
4630;SDS011;2328;48.170;11.602;2023-12-04T20:02:38;10.17;;;5.27;;
4630;SDS011;2328;48.170;11.602;2023-12-04T20:05:07;6.40;;;4.47;;
4630;SDS011;2328;48.170;11.602;2023-12-04T20:07:41;17.20;;;6.83;;
4630;SDS011;2328;48.170;11.602;2023-12-04T20:10:10;18.60;;;7.13;;
4630;SDS011;2328;48.170;11.602;2023-12-04T20:12:39;13.90;;;6.60;;
4630;SDS011;2328;48.170;11.602;2023-12-04T20:15:08;13.97;;;5.80;;
4630;SDS011;2328;48.170;11.602;2023-12-04T20:17:40;9.77;;;5.70;;
4630;SDS011;2328;48.170;11.602;2023-12-04T20:20:10;11.83;;;7.50;;
4630;SDS011;2328;48.170;11.602;2023-12-04T20:22:41;20.60;;;7.03;;
4630;SDS011;2328;48.170;11.602;2023-12-04T20:25:10;9.63;;;5.27;;
4630;SDS011;2328;48.170;11.602;2023-12-04T20:27:41;11.50;;;6.47;;
4630;SDS011;2328;48.170;11.602;2023-12-04T20:30:11;11.00;;;6.03;;
4630;SDS011;2328;48.170;11.602;2023-12-04T20:32:40;13.53;;;4.83;;
4630;SDS011;2328;48.170;11.602;2023-12-04T20:35:11;7.00;;;4.23;;
4630;SDS011;2328;48.170;11.602;2023-12-04T20:37:43;20.53;;;6.60;;
4630;SDS011;2328;48.170;11.602;2023-12-04T20:40:12;9.00;;;4.73;;
4630;SDS011;2328;48.170;11.602;2023-12-04T20:43:08;10.20;;;5.17;;
4630;SDS011;2328;48.170;11.602;2023-12-04T20:45:52;15.23;;;7.77;;
4630;SDS011;2328;48.170;11.602;2023-12-04T20:48:21;20.90;;;9.77;;
4630;SDS011;2328;48.170;11.602;2023-12-04T20:50:56;14.87;;;8.00;;
4630;SDS011;2328;48.170;11.602;2023-12-04T20:53:34;15.40;;;7.40;;
4630;SDS011;2328;48.170;11.602;2023-12-04T20:56:03;13.73;;;6.17;;
4630;SDS011;2328;48.170;11.602;2023-12-04T20:58:32;12.73;;;7.00;;
4630;SDS011;2328;48.170;11.602;2023-12-04T21:01:01;13.30;;;6.87;;
4630;SDS011;2328;48.170;11.602;2023-12-04T21:03:31;12.57;;;6.00;;
4630;SDS011;2328;48.170;11.602;2023-12-04T21:05:59;17.67;;;6.20;;
4630;SDS011;2328;48.170;11.602;2023-12-04T21:08:38;12.60;;;5.13;;
4630;SDS011;2328;48.170;11.602;2023-12-04T21:11:10;11.30;;;5.00;;
4630;SDS011;2328;48.170;11.602;2023-12-04T21:13:38;11.07;;;5.20;;
4630;SDS011;2328;48.170;11.602;2023-12-04T21:16:35;11.73;;;6.00;;
4630;SDS011;2328;48.170;11.602;2023-12-04T21:19:17;13.83;;;5.70;;
4630;SDS011;2328;48.170;11.602;2023-12-04T21:21:48;14.13;;;5.77;;
4630;SDS011;2328;48.170;11.602;2023-12-04T21:24:18;16.13;;;6.10;;
4630;SDS011;2328;48.170;11.602;2023-12-04T21:26:48;13.23;;;5.93;;
4630;SDS011;2328;48.170;11.602;2023-12-04T21:29:16;19.50;;;6.30;;
4630;SDS011;2328;48.170;11.602;2023-12-04T21:31:45;12.37;;;6.07;;
4630;SDS011;2328;48.170;11.602;2023-12-04T21:34:16;9.10;;;5.80;;
4630;SDS011;2328;48.170;11.602;2023-12-04T21:36:45;12.63;;;5.80;;
4630;SDS011;2328;48.170;11.602;2023-12-04T21:39:14;14.40;;;5.53;;
4630;SDS011;2328;48.170;11.602;2023-12-04T21:41:44;11.83;;;5.57;;
4630;SDS011;2328;48.170;11.602;2023-12-04T21:44:13;9.30;;;5.80;;
4630;SDS011;2328;48.170;11.602;2023-12-04T21:46:42;11.23;;;4.80;;
4630;SDS011;2328;48.170;11.602;2023-12-04T21:49:11;13.50;;;4.93;;
4630;SDS011;2328;48.170;11.602;2023-12-04T21:51:40;12.23;;;5.80;;
4630;SDS011;2328;48.170;11.602;2023-12-04T21:54:09;13.10;;;5.40;;
4630;SDS011;2328;48.170;11.602;2023-12-04T21:56:38;13.97;;;5.83;;
4630;SDS011;2328;48.170;11.602;2023-12-04T21:59:09;19.13;;;6.33;;
4630;SDS011;2328;48.170;11.602;2023-12-04T22:01:49;11.30;;;5.13;;
4630;SDS011;2328;48.170;11.602;2023-12-04T22:04:17;12.93;;;5.70;;
4630;SDS011;2328;48.170;11.602;2023-12-04T22:06:46;13.33;;;5.00;;
4630;SDS011;2328;48.170;11.602;2023-12-04T22:09:15;12.93;;;5.97;;
4630;SDS011;2328;48.170;11.602;2023-12-04T22:11:44;8.47;;;4.90;;
4630;SDS011;2328;48.170;11.602;2023-12-04T22:14:14;9.63;;;5.70;;
4630;SDS011;2328;48.170;11.602;2023-12-04T22:16:44;16.67;;;5.70;;
4630;SDS011;2328;48.170;11.602;2023-12-04T22:19:13;12.27;;;5.67;;
4630;SDS011;2328;48.170;11.602;2023-12-04T22:21:41;8.50;;;4.33;;
4630;SDS011;2328;48.170;11.602;2023-12-04T22:24:10;11.97;;;5.90;;
4630;SDS011;2328;48.170;11.602;2023-12-04T22:26:39;11.30;;;5.27;;
4630;SDS011;2328;48.170;11.602;2023-12-04T22:29:08;11.00;;;5.53;;
4630;SDS011;2328;48.170;11.602;2023-12-04T22:31:39;11.43;;;5.27;;
4630;SDS011;2328;48.170;11.602;2023-12-04T22:34:08;10.07;;;4.20;;
4630;SDS011;2328;48.170;11.602;2023-12-04T22:36:37;7.00;;;4.07;;
4630;SDS011;2328;48.170;11.602;2023-12-04T22:39:07;8.97;;;5.23;;
4630;SDS011;2328;48.170;11.602;2023-12-04T22:41:35;17.03;;;5.63;;
4630;SDS011;2328;48.170;11.602;2023-12-04T22:44:04;10.30;;;4.50;;
4630;SDS011;2328;48.170;11.602;2023-12-04T22:46:33;9.10;;;4.87;;
4630;SDS011;2328;48.170;11.602;2023-12-04T22:49:03;7.97;;;3.90;;
4630;SDS011;2328;48.170;11.602;2023-12-04T22:51:32;10.73;;;4.23;;
4630;SDS011;2328;48.170;11.602;2023-12-04T22:54:02;5.50;;;3.97;;
4630;SDS011;2328;48.170;11.602;2023-12-04T22:56:31;11.23;;;5.00;;
4630;SDS011;2328;48.170;11.602;2023-12-04T22:58:59;8.63;;;4.80;;
4630;SDS011;2328;48.170;11.602;2023-12-04T23:01:28;8.40;;;4.20;;
4630;SDS011;2328;48.170;11.602;2023-12-04T23:03:57;13.60;;;4.47;;
4630;SDS011;2328;48.170;11.602;2023-12-04T23:06:27;8.70;;;4.93;;
4630;SDS011;2328;48.170;11.602;2023-12-04T23:08:56;8.67;;;4.37;;
4630;SDS011;2328;48.170;11.602;2023-12-04T23:11:24;7.07;;;3.80;;
4630;SDS011;2328;48.170;11.602;2023-12-04T23:13:53;12.10;;;5.07;;
4630;SDS011;2328;48.170;11.602;2023-12-04T23:19:21;9.77;;;5.00;;
4630;SDS011;2328;48.170;11.602;2023-12-04T23:22:35;6.83;;;4.10;;
4630;SDS011;2328;48.170;11.602;2023-12-04T23:25:18;6.93;;;4.37;;
4630;SDS011;2328;48.170;11.602;2023-12-04T23:27:47;11.60;;;4.00;;
4630;SDS011;2328;48.170;11.602;2023-12-04T23:30:17;9.10;;;5.47;;
4630;SDS011;2328;48.170;11.602;2023-12-04T23:32:49;9.73;;;4.57;;
4630;SDS011;2328;48.170;11.602;2023-12-04T23:35:18;8.03;;;4.20;;
4630;SDS011;2328;48.170;11.602;2023-12-04T23:37:48;9.07;;;4.43;;
4630;SDS011;2328;48.170;11.602;2023-12-04T23:40:17;15.27;;;5.13;;
4630;SDS011;2328;48.170;11.602;2023-12-04T23:42:46;8.43;;;4.00;;
4630;SDS011;2328;48.170;11.602;2023-12-04T23:45:14;6.40;;;3.60;;
4630;SDS011;2328;48.170;11.602;2023-12-04T23:47:43;5.90;;;3.63;;
4630;SDS011;2328;48.170;11.602;2023-12-04T23:50:13;9.13;;;4.43;;
4630;SDS011;2328;48.170;11.602;2023-12-04T23:52:41;9.63;;;4.00;;
4630;SDS011;2328;48.170;11.602;2023-12-04T23:55:12;10.70;;;4.40;;
4630;SDS011;2328;48.170;11.602;2023-12-04T23:57:43;5.53;;;3.83;;
